sensor_id;sensor_type;location;lat;lon;timestamp;pressure;altitude;pressure_sealevel;temperature;humidity
19447;BME280;9862;49.462;11.054;2022-10-31T00:01:57;98524.72;;;18.03;100.00
19447;BME280;9862;49.462;11.054;2022-10-31T00:04:25;98532.63;;;17.77;100.00
19447;BME280;9862;49.462;11.054;2022-10-31T00:06:51;98524.38;;;17.55;100.00
19447;BME280;9862;49.462;11.054;2022-10-31T00:09:18;98522.31;;;17.45;100.00
19447;BME280;9862;49.462;11.054;2022-10-31T00:11:44;98525.59;;;17.47;100.00
19447;BME280;9862;49.462;11.054;2022-10-31T00:14:11;98530.50;;;17.50;100.00
19447;BME280;9862;49.462;11.054;2022-10-31T00:16:38;98516.78;;;17.52;100.00
19447;BME280;9862;49.462;11.054;2022-10-31T00:19:06;98530.25;;;17.52;100.00
19447;BME280;9862;49.462;11.054;2022-10-31T00:21:35;98532.44;;;17.55;100.00
19447;BME280;9862;49.462;11.054;2022-10-31T00:24:02;98533.84;;;17.57;100.00
19447;BME280;9862;49.462;11.054;2022-10-31T00:26:30;98530.81;;;17.54;100.00
19447;BME280;9862;49.462;11.054;2022-10-31T00:28:57;98534.69;;;17.46;100.00
19447;BME280;9862;49.462;11.054;2022-10-31T00:31:24;98532.19;;;17.39;100.00
19447;BME280;9862;49.462;11.054;2022-10-31T00:33:50;98531.13;;;17.40;100.00
19447;BME280;9862;49.462;11.054;2022-10-31T00:36:19;98528.47;;;17.29;100.00
19447;BME280;9862;49.462;11.054;2022-10-31T00:38:47;98530.00;;;17.25;100.00
19447;BME280;9862;49.462;11.054;2022-10-31T00:41:16;98528.13;;;17.25;100.00
19447;BME280;9862;49.462;11.054;2022-10-31T00:43:43;98524.63;;;17.25;100.00
19447;BME280;9862;49.462;11.054;2022-10-31T00:46:10;98520.16;;;17.30;100.00
19447;BME280;9862;49.462;11.054;2022-10-31T00:48:37;98523.19;;;17.34;100.00
19447;BME280;9862;49.462;11.054;2022-10-31T00:51:04;98517.78;;;17.34;100.00
19447;BME280;9862;49.462;11.054;2022-10-31T00:53:30;98531.75;;;17.31;100.00
19447;BME280;9862;49.462;11.054;2022-10-31T00:55:58;98528.38;;;17.24;100.00
19447;BME280;9862;49.462;11.054;2022-10-31T00:58:25;98518.09;;;17.21;100.00
19447;BME280;9862;49.462;11.054;2022-10-31T01:00:52;98526.16;;;17.21;100.00
19447;BME280;9862;49.462;11.054;2022-10-31T01:03:21;98529.41;;;17.23;100.00
19447;BME280;9862;49.462;11.054;2022-10-31T01:05:56;98528.28;;;17.19;100.00
19447;BME280;9862;49.462;11.054;2022-10-31T01:08:23;98526.63;;;17.17;100.00
19447;BME280;9862;49.462;11.054;2022-10-31T01:11:00;98523.34;;;17.15;100.00
19447;BME280;9862;49.462;11.054;2022-10-31T01:13:26;98509.34;;;17.13;100.00
19447;BME280;9862;49.462;11.054;2022-10-31T01:15:54;98518.47;;;17.12;100.00
19447;BME280;9862;49.462;11.054;2022-10-31T01:18:21;98516.84;;;17.11;100.00
19447;BME280;9862;49.462;11.054;2022-10-31T01:20:56;98522.78;;;17.13;100.00
19447;BME280;9862;49.462;11.054;2022-10-31T01:23:23;98521.72;;;17.14;100.00
19447;BME280;9862;49.462;11.054;2022-10-31T01:25:50;98516.34;;;17.14;100.00
19447;BME280;9862;49.462;11.054;2022-10-31T01:28:25;98515.28;;;17.15;100.00
19447;BME280;9862;49.462;11.054;2022-10-31T01:30:52;98518.47;;;17.12;100.00
19447;BME280;9862;49.462;11.054;2022-10-31T01:33:19;98520.09;;;17.13;100.00
19447;BME280;9862;49.462;11.054;2022-10-31T01:35:46;98520.41;;;17.17;100.00
19447;BME280;9862;49.462;11.054;2022-10-31T01:38:13;98523.94;;;17.17;100.00
19447;BME280;9862;49.462;11.054;2022-10-31T01:40:39;98526.88;;;17.16;100.00
19447;BME280;9862;49.462;11.054;2022-10-31T01:43:10;98520.00;;;17.08;100.00
19447;BME280;9862;49.462;11.054;2022-10-31T01:45:39;98514.03;;;17.06;100.00
19447;BME280;9862;49.462;11.054;2022-10-31T01:48:11;98520.94;;;17.02;100.00
19447;BME280;9862;49.462;11.054;2022-10-31T01:50:40;98523.31;;;16.99;100.00
19447;BME280;9862;49.462;11.054;2022-10-31T01:53:09;98516.28;;;16.98;100.00
19447;BME280;9862;49.462;11.054;2022-10-31T01:55:39;98516.50;;;16.96;100.00
19447;BME280;9862;49.462;11.054;2022-10-31T01:58:11;98515.00;;;17.00;100.00
19447;BME280;9862;49.462;11.054;2022-10-31T02:00:41;98518.75;;;16.99;100.00
19447;BME280;9862;49.462;11.054;2022-10-31T02:03:10;98521.31;;;16.94;100.00
19447;BME280;9862;49.462;11.054;2022-10-31T02:05:37;98521.09;;;16.84;100.00
19447;BME280;9862;49.462;11.054;2022-10-31T02:08:06;98527.41;;;16.78;100.00
19447;BME280;9862;49.462;11.054;2022-10-31T02:10:36;98529.53;;;16.76;100.00
19447;BME280;9862;49.462;11.054;2022-10-31T02:13:05;98524.63;;;16.73;100.00
19447;BME280;9862;49.462;11.054;2022-10-31T02:15:32;98516.56;;;16.61;100.00
19447;BME280;9862;49.462;11.054;2022-10-31T02:18:00;98517.94;;;16.64;100.00
19447;BME280;9862;49.462;11.054;2022-10-31T02:20:32;98515.75;;;16.60;100.00
19447;BME280;9862;49.462;11.054;2022-10-31T02:23:19;98512.13;;;16.55;100.00
19447;BME280;9862;49.462;11.054;2022-10-31T02:29:16;98518.09;;;16.45;100.00
19447;BME280;9862;49.462;11.054;2022-10-31T02:31:57;98514.81;;;16.43;100.00
19447;BME280;9862;49.462;11.054;2022-10-31T02:34:34;98510.75;;;16.41;100.00
19447;BME280;9862;49.462;11.054;2022-10-31T02:37:10;98511.75;;;16.40;100.00
19447;BME280;9862;49.462;11.054;2022-10-31T02:39:44;98509.88;;;16.40;100.00
19447;BME280;9862;49.462;11.054;2022-10-31T02:42:16;98512.47;;;16.47;100.00
19447;BME280;9862;49.462;11.054;2022-10-31T02:44:50;98513.84;;;16.49;100.00
19447;BME280;9862;49.462;11.054;2022-10-31T02:47:23;98510.25;;;16.44;100.00
19447;BME280;9862;49.462;11.054;2022-10-31T02:49:57;98517.59;;;16.48;100.00
19447;BME280;9862;49.462;11.054;2022-10-31T02:52:28;98510.59;;;16.47;100.00
19447;BME280;9862;49.462;11.054;2022-10-31T02:54:55;98507.66;;;16.49;100.00
19447;BME280;9862;49.462;11.054;2022-10-31T02:57:24;98509.53;;;16.48;100.00
19447;BME280;9862;49.462;11.054;2022-10-31T02:59:54;98507.34;;;16.45;100.00
19447;BME280;9862;49.462;11.054;2022-10-31T03:02:43;98505.00;;;16.37;100.00
19447;BME280;9862;49.462;11.054;2022-10-31T03:08:20;98504.53;;;16.40;100.00
19447;BME280;9862;49.462;11.054;2022-10-31T03:10:53;98499.16;;;16.40;100.00
19447;BME280;9862;49.462;11.054;2022-10-31T03:13:28;98497.50;;;16.39;100.00
19447;BME280;9862;49.462;11.054;2022-10-31T03:16:03;98495.88;;;16.38;100.00
19447;BME280;9862;49.462;11.054;2022-10-31T03:18:37;98494.25;;;16.37;100.00
19447;BME280;9862;49.462;11.054;2022-10-31T03:21:08;98500.19;;;16.39;100.00
19447;BME280;9862;49.462;11.054;2022-10-31T03:23:37;98505.81;;;16.38;100.00
19447;BME280;9862;49.462;11.054;2022-10-31T03:26:07;98499.03;;;16.35;100.00
19447;BME280;9862;49.462;11.054;2022-10-31T03:28:38;98499.53;;;16.32;100.00
19447;BME280;9862;49.462;11.054;2022-10-31T03:31:09;98499.28;;;16.34;100.00
19447;BME280;9862;49.462;11.054;2022-10-31T03:33:38;98496.47;;;16.28;100.00
19447;BME280;9862;49.462;11.054;2022-10-31T03:36:08;98509.66;;;16.30;100.00
19447;BME280;9862;49.462;11.054;2022-10-31T03:38:38;98511.53;;;16.29;100.00
19447;BME280;9862;49.462;11.054;2022-10-31T03:41:09;98508.84;;;16.29;100.00
19447;BME280;9862;49.462;11.054;2022-10-31T03:43:40;98504.06;;;16.31;100.00
19447;BME280;9862;49.462;11.054;2022-10-31T03:46:09;98501.41;;;16.31;100.00
19447;BME280;9862;49.462;11.054;2022-10-31T03:48:38;98505.94;;;16.31;100.00
19447;BME280;9862;49.462;11.054;2022-10-31T03:51:09;98512.25;;;16.25;100.00
19447;BME280;9862;49.462;11.054;2022-10-31T03:53:39;98509.31;;;16.26;100.00
19447;BME280;9862;49.462;11.054;2022-10-31T03:56:12;98504.19;;;16.25;100.00
19447;BME280;9862;49.462;11.054;2022-10-31T03:58:45;98516.31;;;16.27;100.00
19447;BME280;9862;49.462;11.054;2022-10-31T04:01:15;98517.50;;;16.31;100.00
19447;BME280;9862;49.462;11.054;2022-10-31T04:03:45;98518.78;;;16.29;100.00
19447;BME280;9862;49.462;11.054;2022-10-31T04:06:13;98516.44;;;16.44;100.00
19447;BME280;9862;49.462;11.054;2022-10-31T04:08:44;98521.13;;;16.37;100.00
19447;BME280;9862;49.462;11.054;2022-10-31T04:11:13;98518.91;;;16.22;100.00
19447;BME280;9862;49.462;11.054;2022-10-31T04:13:43;98522.16;;;16.24;100.00
19447;BME280;9862;49.462;11.054;2022-10-31T04:16:12;98523.31;;;16.17;100.00
19447;BME280;9862;49.462;11.054;2022-10-31T04:18:39;98518.88;;;16.11;100.00
19447;BME280;9862;49.462;11.054;2022-10-31T04:21:08;98514.31;;;15.99;100.00
19447;BME280;9862;49.462;11.054;2022-10-31T04:23:35;98514.19;;;15.83;100.00
19447;BME280;9862;49.462;11.054;2022-10-31T04:26:02;98519.06;;;15.74;100.00
19447;BME280;9862;49.462;11.054;2022-10-31T04:28:29;98522.88;;;15.66;100.00
19447;BME280;9862;49.462;11.054;2022-10-31T04:30:58;98525.03;;;15.58;100.00
19447;BME280;9862;49.462;11.054;2022-10-31T04:33:24;98519.69;;;15.58;100.00
19447;BME280;9862;49.462;11.054;2022-10-31T04:35:51;98519.38;;;15.66;100.00
19447;BME280;9862;49.462;11.054;2022-10-31T04:38:19;98517.13;;;15.63;100.00
19447;BME280;9862;49.462;11.054;2022-10-31T04:40:45;98519.00;;;15.62;100.00
19447;BME280;9862;49.462;11.054;2022-10-31T04:43:12;98514.03;;;15.66;100.00
19447;BME280;9862;49.462;11.054;2022-10-31T04:45:39;98515.78;;;15.72;100.00
19447;BME280;9862;49.462;11.054;2022-10-31T04:48:05;98513.81;;;15.79;100.00
19447;BME280;9862;49.462;11.054;2022-10-31T04:50:32;98509.03;;;15.81;100.00
19447;BME280;9862;49.462;11.054;2022-10-31T04:52:59;98505.66;;;15.86;100.00
19447;BME280;9862;49.462;11.054;2022-10-31T04:55:26;98512.19;;;15.90;100.00
19447;BME280;9862;49.462;11.054;2022-10-31T04:57:53;98507.78;;;15.95;100.00
19447;BME280;9862;49.462;11.054;2022-10-31T05:00:21;98508.94;;;15.99;100.00
19447;BME280;9862;49.462;11.054;2022-10-31T05:02:49;98510.47;;;15.95;100.00
19447;BME280;9862;49.462;11.054;2022-10-31T05:05:17;98510.94;;;15.92;100.00
19447;BME280;9862;49.462;11.054;2022-10-31T05:07:45;98500.06;;;15.87;100.00
19447;BME280;9862;49.462;11.054;2022-10-31T05:10:14;98503.78;;;15.86;100.00
19447;BME280;9862;49.462;11.054;2022-10-31T05:12:47;98496.78;;;15.85;100.00
19447;BME280;9862;49.462;11.054;2022-10-31T05:15:14;98501.69;;;15.88;100.00
19447;BME280;9862;49.462;11.054;2022-10-31T05:17:41;98497.97;;;15.89;100.00
19447;BME280;9862;49.462;11.054;2022-10-31T05:20:08;98495.28;;;15.89;100.00
19447;BME280;9862;49.462;11.054;2022-10-31T05:22:35;98495.97;;;15.85;100.00
19447;BME280;9862;49.462;11.054;2022-10-31T05:25:02;98490.47;;;15.91;100.00
19447;BME280;9862;49.462;11.054;2022-10-31T05:27:29;98493.41;;;15.90;100.00
19447;BME280;9862;49.462;11.054;2022-10-31T05:29:57;98492.44;;;15.72;100.00
19447;BME280;9862;49.462;11.054;2022-10-31T05:32:23;98500.03;;;15.64;100.00
19447;BME280;9862;49.462;11.054;2022-10-31T05:34:50;98494.66;;;15.64;100.00
19447;BME280;9862;49.462;11.054;2022-10-31T05:37:17;98505.28;;;15.70;100.00
19447;BME280;9862;49.462;11.054;2022-10-31T05:39:44;98496.97;;;15.72;100.00
19447;BME280;9862;49.462;11.054;2022-10-31T05:42:10;98507.94;;;15.70;100.00
19447;BME280;9862;49.462;11.054;2022-10-31T05:44:37;98502.72;;;15.76;100.00
19447;BME280;9862;49.462;11.054;2022-10-31T05:47:05;98500.88;;;15.76;100.00
19447;BME280;9862;49.462;11.054;2022-10-31T05:49:31;98500.63;;;15.78;100.00
19447;BME280;9862;49.462;11.054;2022-10-31T05:51:58;98502.25;;;15.79;100.00
19447;BME280;9862;49.462;11.054;2022-10-31T05:54:24;98503.91;;;15.80;100.00
19447;BME280;9862;49.462;11.054;2022-10-31T05:56:51;98509.63;;;15.83;100.00
19447;BME280;9862;49.462;11.054;2022-10-31T05:59:18;98508.91;;;15.76;100.00
19447;BME280;9862;49.462;11.054;2022-10-31T06:01:44;98505.66;;;15.74;100.00
19447;BME280;9862;49.462;11.054;2022-10-31T06:04:12;98502.81;;;15.69;100.00
19447;BME280;9862;49.462;11.054;2022-10-31T06:06:39;98503.53;;;15.76;100.00
19447;BME280;9862;49.462;11.054;2022-10-31T06:09:05;98504.13;;;15.78;100.00
19447;BME280;9862;49.462;11.054;2022-10-31T06:11:32;98500.13;;;15.69;100.00
19447;BME280;9862;49.462;11.054;2022-10-31T06:13:59;98500.22;;;15.62;100.00
19447;BME280;9862;49.462;11.054;2022-10-31T06:16:25;98501.72;;;15.58;100.00
19447;BME280;9862;49.462;11.054;2022-10-31T06:18:52;98503.81;;;16.45;100.00
19447;BME280;9862;49.462;11.054;2022-10-31T06:21:20;98507.66;;;17.98;100.00
19447;BME280;9862;49.462;11.054;2022-10-31T06:23:47;98498.66;;;18.81;100.00
19447;BME280;9862;49.462;11.054;2022-10-31T06:26:13;98490.91;;;19.34;100.00
19447;BME280;9862;49.462;11.054;2022-10-31T06:28:40;98497.28;;;19.71;100.00
19447;BME280;9862;49.462;11.054;2022-10-31T06:31:06;98497.38;;;19.87;100.00
19447;BME280;9862;49.462;11.054;2022-10-31T06:33:33;98490.28;;;20.08;100.00
19447;BME280;9862;49.462;11.054;2022-10-31T06:36:00;98486.91;;;20.27;100.00
19447;BME280;9862;49.462;11.054;2022-10-31T06:38:29;98484.97;;;19.86;100.00
19447;BME280;9862;49.462;11.054;2022-10-31T06:40:55;98496.41;;;19.17;100.00
19447;BME280;9862;49.462;11.054;2022-10-31T06:43:22;98497.09;;;18.47;100.00
19447;BME280;9862;49.462;11.054;2022-10-31T06:45:49;98507.81;;;17.91;100.00
19447;BME280;9862;49.462;11.054;2022-10-31T06:48:15;98512.47;;;17.51;100.00
19447;BME280;9862;49.462;11.054;2022-10-31T06:50:42;98518.66;;;17.23;100.00
19447;BME280;9862;49.462;11.054;2022-10-31T06:53:09;98510.22;;;16.91;100.00
19447;BME280;9862;49.462;11.054;2022-10-31T06:55:37;98515.38;;;16.57;100.00
19447;BME280;9862;49.462;11.054;2022-10-31T06:58:03;98515.75;;;16.37;100.00
19447;BME280;9862;49.462;11.054;2022-10-31T07:00:30;98513.75;;;16.21;100.00
19447;BME280;9862;49.462;11.054;2022-10-31T07:02:59;98516.19;;;16.11;100.00
19447;BME280;9862;49.462;11.054;2022-10-31T07:05:27;98519.59;;;16.06;100.00
19447;BME280;9862;49.462;11.054;2022-10-31T07:07:58;98519.81;;;16.05;100.00
19447;BME280;9862;49.462;11.054;2022-10-31T07:10:27;98516.31;;;16.04;100.00
19447;BME280;9862;49.462;11.054;2022-10-31T07:12:55;98529.28;;;16.07;100.00
19447;BME280;9862;49.462;11.054;2022-10-31T07:15:22;98522.84;;;16.08;100.00
19447;BME280;9862;49.462;11.054;2022-10-31T07:17:49;98527.41;;;16.08;100.00
19447;BME280;9862;49.462;11.054;2022-10-31T07:20:16;98529.84;;;16.09;100.00
19447;BME280;9862;49.462;11.054;2022-10-31T07:22:43;98531.28;;;16.12;100.00
19447;BME280;9862;49.462;11.054;2022-10-31T07:25:10;98534.53;;;16.14;100.00
19447;BME280;9862;49.462;11.054;2022-10-31T07:27:37;98527.31;;;16.14;100.00
19447;BME280;9862;49.462;11.054;2022-10-31T07:30:07;98531.03;;;16.13;100.00
19447;BME280;9862;49.462;11.054;2022-10-31T07:32:38;98536.41;;;16.13;100.00
19447;BME280;9862;49.462;11.054;2022-10-31T07:35:05;98527.97;;;16.10;100.00
19447;BME280;9862;49.462;11.054;2022-10-31T07:37:32;98531.47;;;16.10;100.00
19447;BME280;9862;49.462;11.054;2022-10-31T07:39:59;98526.00;;;16.17;100.00
19447;BME280;9862;49.462;11.054;2022-10-31T07:42:26;98526.72;;;16.24;100.00
19447;BME280;9862;49.462;11.054;2022-10-31T07:44:53;98524.63;;;16.26;100.00
19447;BME280;9862;49.462;11.054;2022-10-31T07:47:21;98521.00;;;16.32;100.00
19447;BME280;9862;49.462;11.054;2022-10-31T07:49:48;98535.59;;;16.36;100.00
19447;BME280;9862;49.462;11.054;2022-10-31T07:52:14;98523.13;;;16.42;100.00
19447;BME280;9862;49.462;11.054;2022-10-31T07:54:41;98518.41;;;16.49;100.00
19447;BME280;9862;49.462;11.054;2022-10-31T07:57:07;98528.47;;;16.53;100.00
19447;BME280;9862;49.462;11.054;2022-10-31T07:59:34;98527.75;;;16.58;100.00
19447;BME280;9862;49.462;11.054;2022-10-31T08:02:00;98522.50;;;16.63;100.00
19447;BME280;9862;49.462;11.054;2022-10-31T08:04:28;98525.13;;;16.70;100.00
19447;BME280;9862;49.462;11.054;2022-10-31T08:06:55;98520.41;;;16.77;100.00
19447;BME280;9862;49.462;11.054;2022-10-31T08:09:22;98517.56;;;16.95;100.00
19447;BME280;9862;49.462;11.054;2022-10-31T08:11:48;98519.19;;;16.96;100.00
19447;BME280;9862;49.462;11.054;2022-10-31T08:14:15;98517.59;;;16.83;100.00
19447;BME280;9862;49.462;11.054;2022-10-31T08:16:41;98517.97;;;16.75;100.00
19447;BME280;9862;49.462;11.054;2022-10-31T08:19:08;98520.41;;;16.77;100.00
19447;BME280;9862;49.462;11.054;2022-10-31T08:21:36;98518.53;;;16.66;100.00
19447;BME280;9862;49.462;11.054;2022-10-31T08:24:03;98517.06;;;16.70;100.00
19447;BME280;9862;49.462;11.054;2022-10-31T08:26:30;98513.16;;;16.66;100.00
19447;BME280;9862;49.462;11.054;2022-10-31T08:28:57;98512.44;;;16.58;100.00
19447;BME280;9862;49.462;11.054;2022-10-31T08:31:23;98508.94;;;16.58;100.00
19447;BME280;9862;49.462;11.054;2022-10-31T08:33:52;98506.50;;;16.56;100.00
19447;BME280;9862;49.462;11.054;2022-10-31T08:36:19;98508.13;;;16.57;100.00
19447;BME280;9862;49.462;11.054;2022-10-31T08:38:47;98503.09;;;16.49;100.00
19447;BME280;9862;49.462;11.054;2022-10-31T08:41:14;98506.28;;;16.46;100.00
19447;BME280;9862;49.462;11.054;2022-10-31T08:43:41;98507.59;;;16.32;100.00
19447;BME280;9862;49.462;11.054;2022-10-31T08:46:08;98506.28;;;16.35;100.00
19447;BME280;9862;49.462;11.054;2022-10-31T08:48:34;98502.78;;;16.34;100.00
19447;BME280;9862;49.462;11.054;2022-10-31T08:51:01;98499.28;;;16.45;100.00
19447;BME280;9862;49.462;11.054;2022-10-31T08:53:27;98504.88;;;16.55;100.00
19447;BME280;9862;49.462;11.054;2022-10-31T08:55:56;98504.88;;;16.55;100.00
19447;BME280;9862;49.462;11.054;2022-10-31T08:58:23;98503.09;;;16.49;100.00
19447;BME280;9862;49.462;11.054;2022-10-31T09:00:53;98499.88;;;16.71;100.00
19447;BME280;9862;49.462;11.054;2022-10-31T09:03:22;98492.88;;;16.70;100.00
19447;BME280;9862;49.462;11.054;2022-10-31T09:05:50;98497.28;;;16.76;100.00
19447;BME280;9862;49.462;11.054;2022-10-31T09:08:20;98485.88;;;16.97;100.00
19447;BME280;9862;49.462;11.054;2022-10-31T09:10:47;98488.22;;;16.94;100.00
19447;BME280;9862;49.462;11.054;2022-10-31T09:13:17;98491.66;;;16.89;100.00
19447;BME280;9862;49.462;11.054;2022-10-31T09:15:45;98491.50;;;16.96;100.00
19447;BME280;9862;49.462;11.054;2022-10-31T09:18:13;98490.78;;;17.00;100.00
19447;BME280;9862;49.462;11.054;2022-10-31T09:20:41;98489.94;;;17.11;100.00
19447;BME280;9862;49.462;11.054;2022-10-31T09:23:10;98492.97;;;17.15;100.00
19447;BME280;9862;49.462;11.054;2022-10-31T09:25:38;98495.84;;;17.25;100.00
19447;BME280;9862;49.462;11.054;2022-10-31T09:28:06;98482.56;;;17.35;100.00
19447;BME280;9862;49.462;11.054;2022-10-31T09:30:35;98480.13;;;17.34;100.00
19447;BME280;9862;49.462;11.054;2022-10-31T09:33:03;98486.25;;;17.46;100.00
19447;BME280;9862;49.462;11.054;2022-10-31T09:35:30;98476.09;;;17.48;100.00
19447;BME280;9862;49.462;11.054;2022-10-31T09:37:58;98483.53;;;17.58;100.00
19447;BME280;9862;49.462;11.054;2022-10-31T09:40:31;98480.88;;;17.46;100.00
19447;BME280;9862;49.462;11.054;2022-10-31T09:43:04;98482.06;;;17.50;100.00
19447;BME280;9862;49.462;11.054;2022-10-31T09:45:37;98481.56;;;17.53;100.00
19447;BME280;9862;49.462;11.054;2022-10-31T09:48:23;98483.84;;;17.61;100.00
19447;BME280;9862;49.462;11.054;2022-10-31T09:50:55;98476.69;;;17.67;100.00
19447;BME280;9862;49.462;11.054;2022-10-31T09:53:29;98479.78;;;17.59;100.00
19447;BME280;9862;49.462;11.054;2022-10-31T09:55:59;98480.91;;;17.63;100.00
19447;BME280;9862;49.462;11.054;2022-10-31T09:58:27;98475.75;;;17.90;100.00
19447;BME280;9862;49.462;11.054;2022-10-31T10:00:58;98464.00;;;17.96;100.00
19447;BME280;9862;49.462;11.054;2022-10-31T10:03:33;98464.97;;;17.90;100.00
19447;BME280;9862;49.462;11.054;2022-10-31T10:06:08;98459.19;;;17.98;100.00
19447;BME280;9862;49.462;11.054;2022-10-31T10:08:37;98455.03;;;18.07;100.00
19447;BME280;9862;49.462;11.054;2022-10-31T10:11:14;98448.47;;;18.20;100.00
19447;BME280;9862;49.462;11.054;2022-10-31T10:13:54;98444.53;;;18.27;100.00
19447;BME280;9862;49.462;11.054;2022-10-31T10:16:35;98443.38;;;18.23;100.00
19447;BME280;9862;49.462;11.054;2022-10-31T10:19:17;98431.59;;;18.46;100.00
19447;BME280;9862;49.462;11.054;2022-10-31T10:21:52;98439.94;;;18.45;100.00
19447;BME280;9862;49.462;11.054;2022-10-31T10:24:30;98435.47;;;18.72;100.00
19447;BME280;9862;49.462;11.054;2022-10-31T10:27:08;98434.97;;;18.58;100.00
19447;BME280;9862;49.462;11.054;2022-10-31T10:29:42;98438.50;;;18.59;100.00
19447;BME280;9862;49.462;11.054;2022-10-31T10:32:18;98433.59;;;18.73;100.00
19447;BME280;9862;49.462;11.054;2022-10-31T10:34:49;98432.84;;;18.60;100.00
19447;BME280;9862;49.462;11.054;2022-10-31T10:37:23;98424.88;;;18.49;100.00
19447;BME280;9862;49.462;11.054;2022-10-31T10:39:54;98428.81;;;18.41;100.00
19447;BME280;9862;49.462;11.054;2022-10-31T10:42:23;98426.88;;;18.37;100.00
19447;BME280;9862;49.462;11.054;2022-10-31T10:45:14;98425.69;;;18.27;100.00
19447;BME280;9862;49.462;11.054;2022-10-31T10:48:05;98428.88;;;18.24;100.00
19447;BME280;9862;49.462;11.054;2022-10-31T10:50:38;98416.09;;;18.37;100.00
19447;BME280;9862;49.462;11.054;2022-10-31T10:53:16;98408.28;;;18.35;100.00
19447;BME280;9862;49.462;11.054;2022-10-31T10:55:51;98401.00;;;18.36;100.00
19447;BME280;9862;49.462;11.054;2022-10-31T10:58:23;98396.84;;;18.28;100.00
19447;BME280;9862;49.462;11.054;2022-10-31T11:00:50;98396.16;;;18.38;100.00
19447;BME280;9862;49.462;11.054;2022-10-31T11:03:20;98387.53;;;18.36;100.00
19447;BME280;9862;49.462;11.054;2022-10-31T11:05:48;98389.47;;;18.40;100.00
19447;BME280;9862;49.462;11.054;2022-10-31T11:08:23;98389.41;;;18.35;100.00
19447;BME280;9862;49.462;11.054;2022-10-31T11:10:56;98386.72;;;18.35;100.00
19447;BME280;9862;49.462;11.054;2022-10-31T11:13:24;98390.28;;;18.41;100.00
19447;BME280;9862;49.462;11.054;2022-10-31T11:15:56;98382.75;;;18.43;100.00
19447;BME280;9862;49.462;11.054;2022-10-31T11:18:26;98382.41;;;18.34;100.00
19447;BME280;9862;49.462;11.054;2022-10-31T11:20:55;98374.50;;;18.27;100.00
19447;BME280;9862;49.462;11.054;2022-10-31T11:23:24;98369.78;;;18.40;100.00
19447;BME280;9862;49.462;11.054;2022-10-31T11:25:55;98375.00;;;18.46;100.00
19447;BME280;9862;49.462;11.054;2022-10-31T11:28:22;98365.31;;;18.50;100.00
19447;BME280;9862;49.462;11.054;2022-10-31T11:30:51;98362.88;;;18.49;100.00
19447;BME280;9862;49.462;11.054;2022-10-31T11:33:26;98355.00;;;18.64;100.00
19447;BME280;9862;49.462;11.054;2022-10-31T11:35:54;98351.41;;;18.80;100.00
19447;BME280;9862;49.462;11.054;2022-10-31T11:38:23;98347.91;;;18.80;100.00
19447;BME280;9862;49.462;11.054;2022-10-31T11:40:55;98354.47;;;18.89;100.00
19447;BME280;9862;49.462;11.054;2022-10-31T11:43:22;98348.78;;;18.85;100.00
19447;BME280;9862;49.462;11.054;2022-10-31T11:45:49;98341.25;;;18.87;100.00
19447;BME280;9862;49.462;11.054;2022-10-31T11:48:18;98343.78;;;18.99;100.00
19447;BME280;9862;49.462;11.054;2022-10-31T11:50:53;98334.97;;;19.09;100.00
19447;BME280;9862;49.462;11.054;2022-10-31T11:53:26;98328.19;;;19.06;100.00
19447;BME280;9862;49.462;11.054;2022-10-31T11:56:03;98330.91;;;19.06;100.00
19447;BME280;9862;49.462;11.054;2022-10-31T11:58:31;98326.88;;;19.09;100.00
19447;BME280;9862;49.462;11.054;2022-10-31T12:00:58;98320.47;;;19.15;100.00
19447;BME280;9862;49.462;11.054;2022-10-31T12:03:43;98324.03;;;19.21;100.00
19447;BME280;9862;49.462;11.054;2022-10-31T12:06:21;98316.91;;;19.47;100.00
19447;BME280;9862;49.462;11.054;2022-10-31T12:08:49;98308.06;;;19.51;100.00
19447;BME280;9862;49.462;11.054;2022-10-31T12:11:31;98307.19;;;19.45;100.00
19447;BME280;9862;49.462;11.054;2022-10-31T12:14:10;98304.47;;;19.40;100.00
19447;BME280;9862;49.462;11.054;2022-10-31T12:16:44;98304.41;;;19.30;100.00
19447;BME280;9862;49.462;11.054;2022-10-31T12:19:19;98300.44;;;19.43;100.00
19447;BME280;9862;49.462;11.054;2022-10-31T12:22:04;98303.41;;;19.41;100.00
19447;BME280;9862;49.462;11.054;2022-10-31T12:24:42;98291.16;;;19.29;100.00
19447;BME280;9862;49.462;11.054;2022-10-31T12:27:20;98296.31;;;19.30;100.00
19447;BME280;9862;49.462;11.054;2022-10-31T12:30:02;98294.09;;;19.22;100.00
19447;BME280;9862;49.462;11.054;2022-10-31T12:32:40;98288.63;;;19.17;100.00
19447;BME280;9862;49.462;11.054;2022-10-31T12:35:21;98283.91;;;19.34;100.00
19447;BME280;9862;49.462;11.054;2022-10-31T12:38:05;98284.94;;;19.28;100.00
19447;BME280;9862;49.462;11.054;2022-10-31T12:40:51;98278.25;;;19.36;100.00
19447;BME280;9862;49.462;11.054;2022-10-31T12:43:32;98277.41;;;19.30;100.00
19447;BME280;9862;49.462;11.054;2022-10-31T12:46:02;98268.88;;;19.43;100.00
19447;BME280;9862;49.462;11.054;2022-10-31T12:48:42;98266.72;;;19.45;100.00
19447;BME280;9862;49.462;11.054;2022-10-31T12:51:18;98276.69;;;19.40;100.00
19447;BME280;9862;49.462;11.054;2022-10-31T12:54:06;98265.34;;;19.43;100.00
19447;BME280;9862;49.462;11.054;2022-10-31T12:56:42;98259.09;;;19.37;100.00
19447;BME280;9862;49.462;11.054;2022-10-31T12:59:16;98261.78;;;19.32;100.00
19447;BME280;9862;49.462;11.054;2022-10-31T13:01:50;98258.59;;;19.40;100.00
19447;BME280;9862;49.462;11.054;2022-10-31T13:04:30;98255.31;;;19.38;100.00
19447;BME280;9862;49.462;11.054;2022-10-31T13:07:04;98245.72;;;19.53;100.00
19447;BME280;9862;49.462;11.054;2022-10-31T13:09:38;98243.06;;;19.58;100.00
19447;BME280;9862;49.462;11.054;2022-10-31T13:12:09;98238.13;;;19.50;100.00